Time;durP1;ratioP1;P1;durP2;ratioP2;P2;SDS_P1;SDS_P2;PMS_P1;PMS_P2;Temp;Humidity;BMP_temperature;BMP_pressure;BME280_temperature;BME280_humidity;BME280_pressure;Samples;Min_cycle;Max_cycle;Signal;HPM_P1;HPM_P2
2022/01/04 00:00:44;;;;;;;9.25;5.55;;;;;;;-139.48;100.00;61774.03;4976833;28;20073;-78
2022/01/04 00:03:28;;;;;;;14.32;5.90;;;;;;;-139.48;100.00;61774.03;4976494;28;20085;-78
2022/01/04 00:06:11;;;;;;;15.32;6.43;;;;;;;-139.48;100.00;61774.03;4963019;28;20066;-78
2022/01/04 00:09:00;;;;;;;15.45;7.07;;;;;;;-139.48;100.00;61774.03;4975678;28;20053;-78
2022/01/04 00:14:31;;;;;;;17.70;6.32;;;;;;;-139.48;100.00;61774.03;4977023;28;20521;-78
2022/01/04 00:17:15;;;;;;;;;;;;;;;-139.48;100.00;61774.03;4979293;28;20072;-78
2022/01/04 00:19:59;;;;;;;18.93;5.87;;;;;;;-139.48;100.00;61774.03;4976775;28;20401;-78
2022/01/04 00:22:43;;;;;;;13.70;5.80;;;;;;;-139.48;100.00;61774.03;4976640;28;20283;-78
2022/01/04 00:25:26;;;;;;;14.25;5.95;;;;;;;-139.48;100.00;61774.03;4975834;28;20050;-78
2022/01/04 00:28:10;;;;;;;11.73;5.13;;;;;;;-139.48;100.00;61774.03;4975471;28;20057;-76
2022/01/04 00:30:54;;;;;;;10.48;5.60;;;;;;;-139.48;100.00;61774.03;4975712;28;20061;-78
2022/01/04 00:33:38;;;;;;;16.63;6.78;;;;;;;-139.48;100.00;61774.03;4976213;28;20058;-78
2022/01/04 00:36:22;;;;;;;9.75;5.40;;;;;;;-139.48;100.00;61774.03;4975842;28;20049;-78
2022/01/04 00:39:06;;;;;;;12.90;5.65;;;;;;;-139.48;100.00;61774.03;4961583;28;20131;-77
2022/01/04 00:41:50;;;;;;;14.57;6.55;;;;;;;-139.48;100.00;61774.03;4975245;28;20065;-77
2022/01/04 00:44:34;;;;;;;;;;;;;;;-139.48;100.00;61774.03;4963806;28;20050;-78
2022/01/04 00:47:25;;;;;;;28.35;6.75;;;;;;;-139.48;100.00;61774.03;4976434;28;19977;-78
2022/01/04 00:50:09;;;;;;;14.68;5.75;;;;;;;-139.48;100.00;61774.03;4977505;28;20053;-78
2022/01/04 00:52:54;;;;;;;12.35;5.78;;;;;;;-139.48;100.00;61774.03;4961642;28;20498;-77
2022/01/04 00:55:38;;;;;;;10.88;6.35;;;;;;;-139.48;100.00;61774.03;4974108;28;20054;-77
2022/01/04 00:58:22;;;;;;;12.35;6.30;;;;;;;-139.48;100.00;61774.03;4976294;28;20097;-77
2022/01/04 01:01:06;;;;;;;15.05;6.03;;;;;;;-139.48;100.00;61774.03;4977527;28;20112;-77
2022/01/04 01:03:50;;;;;;;10.57;5.82;;;;;;;-139.48;100.00;61774.03;4961717;28;20193;-77
2022/01/04 01:06:34;;;;;;;13.25;5.97;;;;;;;-139.48;100.00;61774.03;4975960;28;20450;-77
2022/01/04 01:09:20;;;;;;;14.35;6.72;;;;;;;-139.48;100.00;61774.03;4976248;28;20046;-77
2022/01/04 01:12:04;;;;;;;11.98;5.88;;;;;;;-139.48;100.00;61774.03;4975056;28;20049;-77
2022/01/04 01:14:48;;;;;;;20.65;6.20;;;;;;;-139.48;100.00;61774.03;4975371;28;20509;-77
2022/01/04 01:17:32;;;;;;;12.25;5.72;;;;;;;-139.48;100.00;61774.03;4975380;28;20057;-77
2022/01/04 01:20:17;;;;;;;10.10;5.97;;;;;;;-139.48;100.00;61774.03;4961169;28;20057;-76
2022/01/04 01:23:02;;;;;;;9.98;5.82;;;;;;;-139.48;100.00;61774.03;4974390;28;20097;-76
2022/01/04 01:25:46;;;;;;;10.02;5.35;;;;;;;-139.48;100.00;61774.03;4975750;28;20050;-77
2022/01/04 01:28:31;;;;;;;16.90;6.22;;;;;;;-139.48;100.00;61774.03;4976499;28;20097;-77
2022/01/04 01:31:15;;;;;;;12.82;6.00;;;;;;;-139.48;100.00;61774.03;4975021;28;20049;-78
2022/01/04 01:33:59;;;;;;;9.82;5.85;;;;;;;-139.48;100.00;61774.03;4975367;28;20450;-77
2022/01/04 01:36:43;;;;;;;10.18;5.47;;;;;;;-139.48;100.00;61774.03;4974577;28;20089;-77
2022/01/04 01:39:27;;;;;;;14.13;6.07;;;;;;;-139.48;100.00;61774.03;4975266;28;20550;-77
2022/01/04 01:42:11;;;;;;;12.13;6.25;;;;;;;-139.48;100.00;61774.03;4961731;28;20057;-77
2022/01/04 01:44:55;;;;;;;14.98;6.50;;;;;;;-139.48;100.00;61774.03;4975582;28;20562;-78
2022/01/04 01:47:41;;;;;;;11.93;6.47;;;;;;;-139.48;100.00;61774.03;4975224;28;20054;-77
2022/01/04 01:50:25;;;;;;;14.55;6.15;;;;;;;-139.48;100.00;61774.03;4974951;28;20513;-77
2022/01/04 01:53:08;;;;;;;16.27;6.10;;;;;;;-139.48;100.00;61774.03;4961340;28;20101;-77
2022/01/04 01:55:52;;;;;;;15.43;5.88;;;;;;;-139.48;100.00;61774.03;4975868;28;20133;-77
2022/01/04 01:58:36;;;;;;;;;;;;;;;-139.48;100.00;61774.03;4976090;28;20489;-77
2022/01/04 02:01:20;;;;;;;14.13;6.10;;;;;;;-139.48;100.00;61774.03;4974382;28;19985;-77
2022/01/04 02:04:04;;;;;;;11.63;6.00;;;;;;;-139.48;100.00;61774.03;4977720;28;20136;-77
2022/01/04 02:06:48;;;;;;;15.27;6.45;;;;;;;-139.48;100.00;61774.03;4978193;28;20127;-77
2022/01/04 02:09:33;;;;;;;;;;;;;;;-139.48;100.00;61774.03;4981039;28;20158;-78
2022/01/04 02:12:17;;;;;;;;;;;;;;;-139.48;100.00;61774.03;4979123;28;19924;-78
2022/01/04 02:15:03;;;;;;;15.48;5.60;;;;;;;-139.48;100.00;61774.03;4978448;28;20238;-77
2022/01/04 02:17:48;;;;;;;18.00;6.30;;;;;;;-139.48;100.00;61774.03;4977944;28;20049;-77
2022/01/04 02:20:32;;;;;;;15.95;6.43;;;;;;;-139.48;100.00;61774.03;4978364;28;20092;-77
2022/01/04 02:23:16;;;;;;;12.13;6.75;;;;;;;-139.48;100.00;61774.03;4977522;28;20053;-77
2022/01/04 02:26:01;;;;;;;14.65;6.50;;;;;;;-139.48;100.00;61774.03;4963759;28;20042;-77
2022/01/04 02:28:46;;;;;;;11.40;5.80;;;;;;;-139.48;100.00;61774.03;4977611;28;20066;-76
2022/01/04 02:31:30;;;;;;;12.18;6.38;;;;;;;-139.48;100.00;61774.03;4977255;28;20498;-77
2022/01/04 02:34:14;;;;;;;15.05;5.93;;;;;;;-139.48;100.00;61774.03;4978523;28;20517;-77
2022/01/04 02:36:58;;;;;;;16.65;5.80;;;;;;;-139.48;100.00;61774.03;4978440;28;20061;-80
2022/01/04 02:39:42;;;;;;;12.40;6.57;;;;;;;-139.48;100.00;61774.03;4977245;28;20054;-77
2022/01/04 02:42:27;;;;;;;17.75;6.70;;;;;;;-139.48;100.00;61774.03;4963508;28;20109;-77
2022/01/04 02:45:11;;;;;;;17.98;6.25;;;;;;;-139.48;100.00;61774.03;4976514;28;20526;-77
2022/01/04 02:47:55;;;;;;;15.90;6.30;;;;;;;-139.48;100.00;61774.03;4976278;28;20066;-77
2022/01/04 02:50:39;;;;;;;14.90;6.65;;;;;;;-139.48;100.00;61774.03;4976994;28;20049;-76
2022/01/04 02:53:23;;;;;;;19.42;7.25;;;;;;;-139.48;100.00;61774.03;4976024;28;20081;-77
2022/01/04 02:56:07;;;;;;;14.00;6.60;;;;;;;-139.48;100.00;61774.03;4976713;28;20058;-76
2022/01/04 02:58:51;;;;;;;11.98;6.60;;;;;;;-139.48;100.00;61774.03;4976886;28;20133;-76
2022/01/04 03:01:34;;;;;;;15.88;6.80;;;;;;;-139.48;100.00;61774.03;4976569;28;20583;-76
2022/01/04 03:04:20;;;;;;;14.45;7.13;;;;;;;-139.48;100.00;61774.03;4975593;28;20053;-76
2022/01/04 03:07:04;;;;;;;13.77;5.90;;;;;;;-139.48;100.00;61774.03;4975634;28;20519;-76
2022/01/04 03:09:48;;;;;;;16.77;7.25;;;;;;;-139.48;100.00;61774.03;4975656;28;20073;-76
2022/01/04 03:12:32;;;;;;;13.43;6.95;;;;;;;-139.48;100.00;61774.03;4975441;28;20113;-76
2022/01/04 03:15:17;;;;;;;19.08;7.43;;;;;;;-139.48;100.00;61774.03;4975319;28;20046;-76
2022/01/04 03:18:01;;;;;;;13.50;6.60;;;;;;;-139.48;100.00;61774.03;4975278;28;20553;-76
2022/01/04 03:20:45;;;;;;;11.55;6.50;;;;;;;-139.48;100.00;61774.03;4975155;28;20053;-75
2022/01/04 03:23:29;;;;;;;15.70;7.15;;;;;;;-139.48;100.00;61774.03;4976278;28;20058;-77
2022/01/04 03:26:13;;;;;;;18.38;6.97;;;;;;;-139.48;100.00;61774.03;4975014;28;20046;-76
2022/01/04 03:28:57;;;;;;;16.63;6.75;;;;;;;-139.48;100.00;61774.03;4975482;28;20142;-76
2022/01/04 03:31:43;;;;;;;15.05;7.20;;;;;;;-139.48;100.00;61774.03;4975136;28;20113;-76
2022/01/04 03:34:26;;;;;;;14.05;7.53;;;;;;;-139.48;100.00;61774.03;4974755;28;20085;-76
2022/01/04 03:37:10;;;;;;;17.75;8.23;;;;;;;-139.48;100.00;61774.03;4961345;28;20415;-77
2022/01/04 03:39:54;;;;;;;14.25;7.20;;;;;;;-139.48;100.00;61774.03;4975103;28;20053;-76
2022/01/04 03:42:38;;;;;;;20.75;8.02;;;;;;;-139.48;100.00;61774.03;4975212;28;20432;-77
2022/01/04 03:45:22;;;;;;;16.10;7.43;;;;;;;-139.48;100.00;61774.03;4975783;28;20069;-77
2022/01/04 03:48:06;;;;;;;18.73;7.82;;;;;;;-139.48;100.00;61774.03;4974651;28;20054;-76
2022/01/04 03:50:50;;;;;;;12.93;7.07;;;;;;;-139.48;100.00;61774.03;4974498;28;20057;-76
2022/01/04 03:53:35;;;;;;;13.32;6.95;;;;;;;-139.48;100.00;61774.03;4975619;28;20533;-76
2022/01/04 03:56:19;;;;;;;21.60;8.63;;;;;;;-139.48;100.00;61774.03;4974206;28;20049;-76
2022/01/04 03:59:03;;;;;;;;;;;;;;;-139.48;100.00;61774.03;4975052;28;20121;-76
2022/01/04 04:01:47;;;;;;;16.40;6.90;;;;;;;-139.48;100.00;61774.03;4974711;28;19960;-76
2022/01/04 04:04:32;;;;;;;20.25;8.25;;;;;;;-139.48;100.00;61774.03;4974427;28;20122;-76
2022/01/04 04:07:16;;;;;;;23.23;8.18;;;;;;;-139.48;100.00;61774.03;4974413;28;20053;-76
2022/01/04 04:10:00;;;;;;;;;;;;;;;-139.48;100.00;61774.03;4974924;28;20137;-76
2022/01/04 04:12:44;;;;;;;12.38;7.13;;;;;;;-139.48;100.00;61774.03;4974187;28;20385;-77
2022/01/04 04:15:28;;;;;;;17.23;7.60;;;;;;;-139.48;100.00;61774.03;4974308;28;20094;-76
2022/01/04 04:18:13;;;;;;;15.85;7.10;;;;;;;-139.48;100.00;61774.03;4974357;28;20061;-77
2022/01/04 04:20:57;;;;;;;14.10;6.35;;;;;;;-139.48;100.00;61774.03;4973994;28;20054;-76
2022/01/04 04:23:41;;;;;;;12.93;6.93;;;;;;;-139.48;100.00;61774.03;4973925;28;20486;-75
2022/01/04 04:26:25;;;;;;;17.15;6.75;;;;;;;-139.48;100.00;61774.03;4973996;28;20460;-76
2022/01/04 04:29:09;;;;;;;17.33;7.22;;;;;;;-139.48;100.00;61774.03;4974102;28;20048;-76
2022/01/04 04:31:53;;;;;;;14.07;6.90;;;;;;;-139.48;100.00;61774.03;4974007;28;20145;-76
2022/01/04 04:34:37;;;;;;;10.70;6.25;;;;;;;-139.48;100.00;61774.03;4960262;28;20077;-76
2022/01/04 04:37:24;;;;;;;13.75;6.97;;;;;;;-139.48;100.00;61774.03;4960002;28;20073;-76
2022/01/04 04:40:09;;;;;;;14.52;7.10;;;;;;;-139.48;100.00;61774.03;4973857;28;20053;-75
2022/01/04 04:42:53;;;;;;;11.35;6.60;;;;;;;-139.48;100.00;61774.03;4973788;28;20126;-75
2022/01/04 04:45:37;;;;;;;13.25;6.57;;;;;;;-139.48;100.00;61774.03;4973526;28;20106;-76
2022/01/04 04:48:21;;;;;;;13.25;5.90;;;;;;;-139.48;100.00;61774.03;4973730;28;20053;-75
2022/01/04 04:51:05;;;;;;;14.82;6.60;;;;;;;-139.48;100.00;61774.03;4974484;28;20405;-76
2022/01/04 04:53:49;;;;;;;12.52;6.20;;;;;;;-139.48;100.00;61774.03;4973329;28;20108;-76
2022/01/04 04:56:34;;;;;;;11.40;6.40;;;;;;;-139.48;100.00;61774.03;4973237;28;20101;-76
2022/01/04 04:59:18;;;;;;;12.43;5.95;;;;;;;-139.48;100.00;61774.03;4973920;28;20061;-76
2022/01/04 05:02:02;;;;;;;14.00;6.70;;;;;;;-139.48;100.00;61774.03;4973537;28;20057;-76
2022/01/04 05:04:46;;;;;;;11.38;5.65;;;;;;;-139.48;100.00;61774.03;4973150;28;20054;-76
2022/01/04 05:07:30;;;;;;;8.88;5.57;;;;;;;-139.48;100.00;61774.03;4974519;28;20607;-76
2022/01/04 05:10:14;;;;;;;10.30;5.93;;;;;;;-139.48;100.00;61774.03;4959645;28;20058;-76
2022/01/04 05:12:58;;;;;;;12.32;6.03;;;;;;;-139.48;100.00;61774.03;4973439;28;20069;-76
2022/01/04 05:15:42;;;;;;;18.38;6.55;;;;;;;-139.48;100.00;61774.03;4974627;28;20102;-77
2022/01/04 05:18:26;;;;;;;18.83;5.95;;;;;;;-139.48;100.00;61774.03;4974175;28;20522;-77
2022/01/04 05:21:09;;;;;;;11.73;6.03;;;;;;;-139.48;100.00;61774.03;4973946;28;20081;-76
2022/01/04 05:23:54;;;;;;;9.80;5.82;;;;;;;-139.48;100.00;61774.03;4973235;28;20054;-76
2022/01/04 05:26:38;;;;;;;10.63;5.60;;;;;;;-139.48;100.00;61774.03;4972992;28;20530;-76
2022/01/04 05:29:22;;;;;;;14.35;6.07;;;;;;;-139.48;100.00;61774.03;4973257;28;20105;-76
2022/01/04 05:32:06;;;;;;;11.70;5.78;;;;;;;-139.48;100.00;61774.03;4974161;28;20150;-76
2022/01/04 05:34:50;;;;;;;9.23;5.43;;;;;;;-139.48;100.00;61774.03;4973941;28;20050;-76
2022/01/04 05:37:34;;;;;;;9.48;5.38;;;;;;;-139.48;100.00;61774.03;4972776;28;20058;-76
2022/01/04 05:40:18;;;;;;;16.20;5.75;;;;;;;-139.48;100.00;61774.03;4972861;28;20049;-76
2022/01/04 05:43:02;;;;;;;11.32;5.28;;;;;;;-139.48;100.00;61774.03;4973976;28;20054;-76
2022/01/04 05:45:46;;;;;;;11.77;5.05;;;;;;;-139.48;100.00;61774.03;4972901;28;20101;-76
2022/01/04 05:48:30;;;;;;;13.77;5.55;;;;;;;-139.48;100.00;61774.03;4973027;28;20550;-77
2022/01/04 05:51:14;;;;;;;12.43;5.35;;;;;;;-139.48;100.00;61774.03;4974035;28;20073;-77
2022/01/04 05:53:58;;;;;;;9.05;4.45;;;;;;;-139.48;100.00;61774.03;4973024;28;20069;-77
2022/01/04 05:56:42;;;;;;;14.35;4.95;;;;;;;-139.48;100.00;61774.03;4972853;28;20041;-76
2022/01/04 05:59:26;;;;;;;9.48;4.80;;;;;;;-139.48;100.00;61774.03;4973872;28;20105;-76
2022/01/04 06:02:10;;;;;;;7.97;4.78;;;;;;;-139.48;100.00;61774.03;4959631;28;20125;-77
2022/01/04 06:04:54;;;;;;;9.02;5.47;;;;;;;-139.48;100.00;61774.03;4972613;28;20101;-77
2022/01/04 06:07:38;;;;;;;8.73;5.50;;;;;;;-139.48;100.00;61774.03;4972700;28;20072;-76
2022/01/04 06:10:22;;;;;;;11.57;5.65;;;;;;;-139.48;100.00;61774.03;4972647;28;20057;-77
2022/01/04 06:15:50;;;;;;;;;;;;;;;-139.48;100.00;61774.03;4973019;28;20599;-76
2022/01/04 06:18:34;;;;;;;9.77;6.40;;;;;;;-139.48;100.00;61774.03;4972846;28;19941;-77
2022/01/04 06:21:18;;;;;;;;;;;;;;;-139.48;100.00;61774.03;4973142;28;20134;-76
2022/01/04 06:24:02;;;;;;;14.75;7.20;;;;;;;-139.48;100.00;61774.03;4972686;28;19921;-76
2022/01/04 06:26:46;;;;;;;10.52;6.22;;;;;;;-139.48;100.00;61774.03;4972340;28;20101;-77
2022/01/04 06:29:30;;;;;;;11.50;6.15;;;;;;;-139.48;100.00;61774.03;4972339;28;20518;-76
2022/01/04 06:32:14;;;;;;;8.88;6.43;;;;;;;-139.48;100.00;61774.03;4958749;28;20113;-77
2022/01/04 06:34:58;;;;;;;10.15;6.25;;;;;;;-139.48;100.00;61774.03;4972461;28;20045;-76
2022/01/04 06:37:49;;;;;;;9.18;5.63;;;;;;;-139.48;100.00;61774.03;4972370;28;20054;-76
2022/01/04 06:40:33;;;;;;;10.15;6.72;;;;;;;-139.48;100.00;61774.03;4959389;28;20042;-76
2022/01/04 06:43:17;;;;;;;12.70;6.45;;;;;;;-139.48;100.00;61774.03;4973534;28;20069;-76
2022/01/04 06:46:01;;;;;;;12.45;6.03;;;;;;;-139.48;100.00;61774.03;4972200;28;20142;-76
2022/01/04 06:48:44;;;;;;;12.98;6.30;;;;;;;-139.48;100.00;61774.03;4972369;28;20113;-77
2022/01/04 06:51:29;;;;;;;13.65;6.38;;;;;;;-139.48;100.00;61774.03;4975014;28;20066;-76
2022/01/04 06:54:14;;;;;;;10.18;6.35;;;;;;;-139.48;100.00;61774.03;4975644;28;20049;-76
2022/01/04 06:56:58;;;;;;;13.70;6.38;;;;;;;-139.48;100.00;61774.03;4962239;28;20502;-76
2022/01/04 06:59:42;;;;;;;14.00;6.70;;;;;;;-139.48;100.00;61774.03;4975629;28;20521;-76
2022/01/04 07:02:26;;;;;;;;;;;;;;;-139.48;100.00;61774.03;4976142;28;20513;-76
2022/01/04 07:05:10;;;;;;;11.18;6.07;;;;;;;-139.48;100.00;61774.03;4975446;28;19965;-76
2022/01/04 07:07:54;;;;;;;;;;;;;;;-139.48;100.00;61774.03;4962116;28;20133;-77
2022/01/04 07:10:38;;;;;;;12.43;6.97;;;;;;;-139.48;100.00;61774.03;4976558;28;19965;-76
2022/01/04 07:13:22;;;;;;;11.13;6.53;;;;;;;-139.48;100.00;61774.03;4975485;28;20415;-76
2022/01/04 07:16:06;;;;;;;10.93;6.35;;;;;;;-139.48;100.00;61774.03;4976424;28;20037;-76
2022/01/04 07:18:50;;;;;;;11.57;6.10;;;;;;;-139.48;100.00;61774.03;4975212;28;20054;-76
2022/01/04 07:21:36;;;;;;;13.90;6.25;;;;;;;-139.48;100.00;61774.03;4975454;28;20085;-77
2022/01/04 07:24:20;;;;;;;11.63;5.88;;;;;;;-139.48;100.00;61774.03;4975091;28;20071;-77
2022/01/04 07:27:05;;;;;;;11.95;5.85;;;;;;;-139.48;100.00;61774.03;4975256;28;20094;-75
2022/01/04 07:29:48;;;;;;;12.57;6.40;;;;;;;-139.48;100.00;61774.03;4975250;28;20078;-77
2022/01/04 07:32:32;;;;;;;13.50;6.68;;;;;;;-139.48;100.00;61774.03;4976004;28;20101;-76
2022/01/04 07:35:16;;;;;;;12.88;6.43;;;;;;;-139.48;100.00;61774.03;4976044;28;20586;-77
2022/01/04 07:38:00;;;;;;;11.50;4.93;;;;;;;-139.48;100.00;61774.03;4975055;28;20078;-76
2022/01/04 07:40:44;;;;;;;12.23;6.10;;;;;;;-139.48;100.00;61774.03;4975226;28;20112;-76
2022/01/04 07:43:28;;;;;;;14.32;6.13;;;;;;;-139.48;100.00;61774.03;4961051;28;20109;-75
2022/01/04 07:46:12;;;;;;;10.50;5.82;;;;;;;-139.48;100.00;61774.03;4974709;28;20045;-76
2022/01/04 07:48:56;;;;;;;;;;;;;;;-139.48;100.00;61774.03;4975188;28;20101;-75
2022/01/04 07:51:40;;;;;;;10.33;5.90;;;;;;;-139.48;100.00;61774.03;4974899;28;19929;-76
2022/01/04 07:54:23;;;;;;;10.48;5.22;;;;;;;-139.48;100.00;61774.03;4975615;28;20049;-77
2022/01/04 07:57:07;;;;;;;16.80;6.18;;;;;;;-139.48;100.00;61774.03;4974944;28;20046;-76
2022/01/04 07:59:51;;;;;;;9.70;5.63;;;;;;;-139.48;100.00;61774.03;4960683;28;20109;-76
2022/01/04 08:02:35;;;;;;;12.80;6.65;;;;;;;-139.48;100.00;61774.03;4974298;28;20111;-77
2022/01/04 08:05:19;;;;;;;10.75;5.85;;;;;;;-139.48;100.00;61774.03;4974375;28;20398;-76
2022/01/04 08:08:03;;;;;;;8.63;5.38;;;;;;;-139.48;100.00;61774.03;4960835;28;20049;-77
2022/01/04 08:10:50;;;;;;;8.80;5.50;;;;;;;-139.48;100.00;61774.03;4960484;28;20081;-77
2022/01/04 08:13:34;;;;;;;14.25;6.00;;;;;;;-139.48;100.00;61774.03;4974355;28;20057;-76
2022/01/04 08:16:18;;;;;;;12.25;5.55;;;;;;;-139.48;100.00;61774.03;4975068;28;20046;-76
2022/01/04 08:19:02;;;;;;;9.95;5.85;;;;;;;-139.48;100.00;61774.03;4974067;28;20521;-76
2022/01/04 08:21:46;;;;;;;13.23;5.80;;;;;;;-139.48;100.00;61774.03;4973978;28;20522;-75
2022/01/04 08:24:30;;;;;;;;;;;;;;;-139.48;100.00;61774.03;4975742;28;21480;-76
2022/01/04 08:27:13;;;;;;;8.85;4.97;;;;;;;-139.48;100.00;61774.03;4974130;28;19921;-76
2022/01/04 08:29:58;;;;;;;11.88;5.38;;;;;;;-139.48;100.00;61774.03;4975366;28;20112;-76
2022/01/04 08:32:42;;;;;;;10.60;5.65;;;;;;;-139.48;100.00;61774.03;4960362;28;20054;-76
2022/01/04 08:35:26;;;;;;;13.48;6.25;;;;;;;-139.48;100.00;61774.03;4973611;28;20046;-76
2022/01/04 08:38:10;;;;;;;13.55;5.50;;;;;;;-139.48;100.00;61774.03;4973767;28;20054;-76
2022/01/04 08:40:55;;;;;;;12.52;5.15;;;;;;;-139.48;100.00;61774.03;4974880;28;20046;-76
2022/01/04 08:43:39;;;;;;;11.25;5.55;;;;;;;-139.48;100.00;61774.03;4974621;28;20046;-76
2022/01/04 08:46:23;;;;;;;14.13;5.97;;;;;;;-139.48;100.00;61774.03;4973751;28;20054;-76
2022/01/04 08:49:08;;;;;;;12.35;5.55;;;;;;;-139.48;100.00;61774.03;4960230;28;20129;-76
2022/01/04 08:51:52;;;;;;;10.85;5.97;;;;;;;-139.48;100.00;61774.03;4973462;28;20054;-77
2022/01/04 08:54:36;;;;;;;9.77;5.25;;;;;;;-139.48;100.00;61774.03;4959645;28;20406;-76
2022/01/04 08:57:21;;;;;;;11.90;5.97;;;;;;;-139.48;100.00;61774.03;4959711;28;20050;-76
2022/01/04 09:00:06;;;;;;;13.95;5.82;;;;;;;-139.48;100.00;61774.03;4960208;28;20053;-76
2022/01/04 09:02:50;;;;;;;13.75;5.82;;;;;;;-139.48;100.00;61774.03;4974519;28;20049;-75
2022/01/04 09:05:34;;;;;;;;;;;;;;;-139.48;100.00;61774.03;4974811;28;20053;-74
2022/01/04 09:08:18;;;;;;;9.73;5.50;;;;;;;-139.48;100.00;61774.03;4973419;28;20017;-75
2022/01/04 09:11:03;;;;;;;13.63;6.28;;;;;;;-139.48;100.00;61774.03;4973146;28;20130;-76
2022/01/04 09:13:48;;;;;;;11.80;6.30;;;;;;;-139.48;100.00;61774.03;4972628;28;20146;-75
2022/01/04 09:19:35;;;;;;;12.40;6.03;;;;;;;-139.48;100.00;61774.03;4974075;28;20104;-74
2022/01/04 09:22:19;;;;;;;10.07;5.78;;;;;;;-139.48;100.00;61774.03;4973153;28;20546;-73
2022/01/04 09:25:05;;;;;;;13.45;5.95;;;;;;;-139.48;100.00;61774.03;4974353;28;20066;-74
2022/01/04 09:27:50;;;;;;;13.45;5.95;;;;;;;-139.48;100.00;61774.03;4973209;28;20081;-75
2022/01/04 09:30:34;;;;;;;14.98;6.57;;;;;;;-139.48;100.00;61774.03;4973110;28;20088;-73
2022/01/04 09:33:19;;;;;;;15.05;6.15;;;;;;;-139.48;100.00;61774.03;4973343;28;20065;-74
2022/01/04 09:36:05;;;;;;;13.15;6.05;;;;;;;-139.48;100.00;61774.03;4958991;28;20522;-74
2022/01/04 09:38:48;;;;;;;12.35;6.70;;;;;;;-139.48;100.00;61774.03;4959363;28;20053;-73
2022/01/04 09:41:32;;;;;;;;;;;;;;;-139.48;100.00;61774.03;4974158;28;20054;-74
2022/01/04 09:44:17;;;;;;;18.33;6.37;;;;;;;-139.48;100.00;61774.03;4973713;28;19965;-73
2022/01/04 09:47:03;;;;;;;16.48;6.88;;;;;;;-139.48;100.00;61774.03;4972704;28;20492;-74
2022/01/04 09:49:46;;;;;;;17.13;7.53;;;;;;;-139.48;100.00;61774.03;4972860;28;20054;-75
2022/01/04 09:52:30;;;;;;;;;;;;;;;-139.48;100.00;61774.03;4973429;28;20149;-74
2022/01/04 09:55:15;;;;;;;21.50;7.30;;;;;;;-139.48;100.00;61774.03;4972444;28;20414;-74
2022/01/04 09:58:00;;;;;;;15.75;6.68;;;;;;;-139.48;100.00;61774.03;4972809;28;20104;-74
2022/01/04 10:00:44;;;;;;;14.30;6.57;;;;;;;-139.48;100.00;61774.03;4959135;28;20054;-74
2022/01/04 10:03:30;;;;;;;15.77;7.22;;;;;;;-139.48;100.00;61774.03;4958939;28;20073;-72
2022/01/04 10:06:16;;;;;;;15.98;7.30;;;;;;;-139.48;100.00;61774.03;4973762;28;20092;-74
2022/01/04 10:09:11;;;;;;;16.88;7.13;;;;;;;-139.48;100.00;61774.03;4973733;28;20545;-74
2022/01/04 10:11:58;;;;;;;15.65;7.22;;;;;;;-139.48;100.00;61774.03;4972563;28;20045;-74
2022/01/04 10:14:50;;;;;;;18.13;7.28;;;;;;;-139.48;100.00;61774.03;4972306;28;20184;-74
2022/01/04 10:17:35;;;;;;;17.20;7.25;;;;;;;-139.48;100.00;61774.03;4972957;28;20061;-73
2022/01/04 10:20:20;;;;;;;11.68;6.70;;;;;;;-139.48;100.00;61774.03;4972467;28;20054;-73
2022/01/04 10:23:11;;;;;;;13.35;7.18;;;;;;;-139.48;100.00;61774.03;4973586;28;20133;-73
2022/01/04 10:26:05;;;;;;;14.65;7.70;;;;;;;-139.48;100.00;61774.03;4962476;28;20049;-73
2022/01/04 10:28:48;;;;;;;14.38;6.78;;;;;;;-139.48;100.00;61774.03;4977453;28;20081;-73
2022/01/04 10:31:37;;;;;;;11.82;7.32;;;;;;;-139.48;100.00;61774.03;4976277;28;20097;-74
2022/01/04 10:34:21;;;;;;;17.77;6.95;;;;;;;-139.48;100.00;61774.03;4976091;28;20089;-74
2022/01/04 10:37:05;;;;;;;;;;;;;;;-139.48;100.00;61774.03;4976434;28;20054;-74
2022/01/04 10:40:07;;;;;;;15.73;7.00;;;;;;;-139.48;100.00;61774.03;4977168;28;20026;-74
2022/01/04 10:42:52;;;;;;;15.20;7.10;;;;;;;-139.48;100.00;61774.03;4977131;28;20081;-74
2022/01/04 10:45:37;;;;;;;13.75;7.25;;;;;;;-139.48;100.00;61774.03;4975648;28;20073;-73
2022/01/04 10:48:30;;;;;;;15.60;7.38;;;;;;;-139.48;100.00;61774.03;4962251;28;20061;-74
2022/01/04 10:51:21;;;;;;;17.42;6.57;;;;;;;-139.48;100.00;61774.03;4962433;28;20100;-73
2022/01/04 10:54:06;;;;;;;12.18;6.85;;;;;;;-139.48;100.00;61774.03;4976794;28;20506;-74
2022/01/04 10:57:03;;;;;;;13.48;7.18;;;;;;;-139.48;100.00;61774.03;4975741;28;20557;-75
2022/01/04 10:59:47;;;;;;;16.20;7.55;;;;;;;-139.48;100.00;61774.03;4975713;28;20081;-75
2022/01/04 11:02:32;;;;;;;13.73;7.07;;;;;;;-139.48;100.00;61774.03;4976749;28;20057;-74
2022/01/04 11:05:20;;;;;;;16.33;8.00;;;;;;;-139.48;100.00;61774.03;4975550;28;20093;-73
2022/01/04 11:08:05;;;;;;;19.05;7.65;;;;;;;-139.48;100.00;61774.03;4975623;28;20167;-74
2022/01/04 11:10:50;;;;;;;11.32;7.15;;;;;;;-139.48;100.00;61774.03;4975685;28;20132;-74
2022/01/04 11:13:34;;;;;;;14.02;7.55;;;;;;;-139.48;100.00;61774.03;4975789;28;20100;-73
2022/01/04 11:16:23;;;;;;;14.73;7.53;;;;;;;-139.48;100.00;61774.03;4975428;28;20042;-71
2022/01/04 11:19:07;;;;;;;15.82;8.25;;;;;;;-139.48;100.00;61774.03;4976913;28;20105;-71
2022/01/04 11:21:52;;;;;;;16.35;7.82;;;;;;;-139.48;100.00;61774.03;4975353;28;20061;-73
2022/01/04 11:24:36;;;;;;;21.25;7.32;;;;;;;-139.48;100.00;61774.03;4975459;28;20105;-71
2022/01/04 11:27:20;;;;;;;23.27;8.68;;;;;;;-139.48;100.00;61774.03;4975057;28;20069;-71
2022/01/04 11:30:13;;;;;;;20.23;8.07;;;;;;;-139.48;100.00;61774.03;4974866;28;20049;-71
2022/01/04 11:33:03;;;;;;;14.57;8.63;;;;;;;-139.48;100.00;61774.03;4976622;28;20057;-71
2022/01/04 11:35:47;;;;;;;15.48;7.80;;;;;;;-139.48;100.00;61774.03;4974336;28;20694;-72
2022/01/04 11:38:35;;;;;;;19.15;8.23;;;;;;;-139.48;100.00;61774.03;4974903;28;20077;-72
2022/01/04 11:41:22;;;;;;;17.23;7.78;;;;;;;-139.48;100.00;61774.03;4975003;28;20134;-72
2022/01/04 11:44:17;;;;;;;16.70;7.25;;;;;;;-139.48;100.00;61774.03;4961266;28;20053;-71
2022/01/04 11:47:10;;;;;;;18.65;7.80;;;;;;;-139.48;100.00;61774.03;4974875;28;20418;-71
2022/01/04 11:50:23;;;;;;;12.52;6.90;;;;;;;-139.48;100.00;61774.03;4974560;28;20573;-71
2022/01/04 11:53:10;;;;;;;17.88;7.97;;;;;;;-139.48;100.00;61774.03;4974801;28;20061;-72
2022/01/04 11:55:58;;;;;;;14.95;7.45;;;;;;;-139.48;100.00;61774.03;4974135;28;20116;-71
2022/01/04 11:58:46;;;;;;;19.65;7.35;;;;;;;-139.48;100.00;61774.03;4960908;28;20185;-72
2022/01/04 12:01:31;;;;;;;13.27;6.68;;;;;;;-139.48;100.00;61774.03;4974567;28;20105;-72
2022/01/04 12:04:47;;;;;;;8.98;5.05;;;;;;;-139.48;100.00;61774.03;4974223;28;20054;-72
2022/01/04 12:07:45;;;;;;;11.27;6.05;;;;;;;-139.48;100.00;61774.03;4975237;28;20053;-72
2022/01/04 12:10:29;;;;;;;10.13;5.22;;;;;;;-139.48;100.00;61774.03;4975656;28;20083;-72
2022/01/04 12:13:18;;;;;;;11.50;4.97;;;;;;;-139.48;100.00;61774.03;4960756;28;20053;-72
2022/01/04 12:16:04;;;;;;;11.18;5.20;;;;;;;-139.48;100.00;61774.03;4960399;28;20097;-72
2022/01/04 12:18:48;;;;;;;8.98;4.85;;;;;;;-139.48;100.00;61774.03;4960347;28;20101;-71
2022/01/04 12:21:35;;;;;;;9.48;4.68;;;;;;;-139.48;100.00;61774.03;4974352;28;20053;-73
2022/01/04 12:24:24;;;;;;;8.10;4.50;;;;;;;-139.48;100.00;61774.03;4960255;28;20053;-72
2022/01/04 12:27:12;;;;;;;10.20;4.30;;;;;;;-139.48;100.00;61774.03;4973835;28;20121;-71
2022/01/04 12:30:25;;;;;;;6.47;4.50;;;;;;;-139.48;100.00;61774.03;4974964;28;20057;-72
2022/01/04 12:33:35;;;;;;;8.43;4.22;;;;;;;-139.48;100.00;61774.03;4974082;28;20513;-71
2022/01/04 12:36:40;;;;;;;8.63;4.70;;;;;;;-139.48;100.00;61774.03;4973634;28;20583;-71